createdAt,value
2022-08-31T00:00:21.479Z,2.60
2022-08-31T00:01:21.454Z,2.40
2022-08-31T00:02:21.501Z,2.40
2022-08-31T00:03:21.455Z,2.30
2022-08-31T00:04:21.491Z,2.40
2022-08-31T00:05:21.397Z,2.20
2022-08-31T00:06:21.387Z,2.20
2022-08-31T00:07:21.373Z,2.40
2022-08-31T00:08:21.405Z,2.40
2022-08-31T00:09:21.339Z,2.30
2022-08-31T00:10:31.963Z,2.30
2022-08-31T00:11:22.320Z,2.40
2022-08-31T00:12:21.308Z,2.40
2022-08-31T00:13:21.319Z,2.50
2022-08-31T00:14:21.279Z,2.30
2022-08-31T00:15:22.043Z,2.40
2022-08-31T00:16:21.366Z,2.40
2022-08-31T00:17:21.229Z,2.40
2022-08-31T00:18:21.261Z,2.50
2022-08-31T00:19:21.210Z,2.50
2022-08-31T00:20:32.721Z,2.30
2022-08-31T00:21:22.182Z,2.40
2022-08-31T00:22:21.178Z,2.60
2022-08-31T00:23:21.170Z,2.40
2022-08-31T00:24:21.170Z,2.40
2022-08-31T00:25:21.121Z,2.40
2022-08-31T00:26:21.111Z,2.40
2022-08-31T00:27:21.102Z,2.60
2022-08-31T00:28:21.121Z,2.50
2022-08-31T00:29:21.072Z,2.70
2022-08-31T00:30:21.062Z,2.50
2022-08-31T00:31:21.140Z,2.60
2022-08-31T00:32:21.655Z,2.50
2022-08-31T00:33:21.045Z,2.60
2022-08-31T00:34:21.004Z,2.50
2022-08-31T00:35:20.993Z,2.50
2022-08-31T00:36:20.988Z,2.70
2022-08-31T00:37:20.975Z,2.30
2022-08-31T00:38:20.984Z,2.50
2022-08-31T00:39:20.944Z,2.70
2022-08-31T00:40:20.993Z,2.50
2022-08-31T00:41:20.904Z,2.30
2022-08-31T00:42:20.905Z,2.90
2022-08-31T00:43:20.946Z,2.40
2022-08-31T00:44:20.875Z,2.70
2022-08-31T00:45:20.970Z,2.40
2022-08-31T00:46:20.853Z,2.50
2022-08-31T00:47:20.839Z,2.30
2022-08-31T00:48:20.847Z,2.60
2022-08-31T00:49:20.806Z,2.40
2022-08-31T00:50:20.799Z,2.40
2022-08-31T00:51:20.779Z,2.90
2022-08-31T00:52:20.769Z,2.90
2022-08-31T00:53:20.775Z,2.70
2022-08-31T00:54:20.746Z,2.50
2022-08-31T00:55:20.738Z,2.40
2022-08-31T00:56:20.718Z,2.50
2022-08-31T00:57:20.918Z,2.40
2022-08-31T00:58:21.717Z,2.30
2022-08-31T00:59:20.669Z,2.40
2022-08-31T01:00:20.664Z,2.60
2022-08-31T01:01:20.719Z,2.40
2022-08-31T01:02:20.799Z,2.50
2022-08-31T01:03:20.639Z,2.40
2022-08-31T01:04:20.609Z,2.60
2022-08-31T01:05:20.592Z,2.30
2022-08-31T01:06:20.580Z,2.50
2022-08-31T01:07:20.562Z,2.50
2022-08-31T01:08:30.878Z,2.40
2022-08-31T01:09:21.541Z,2.40
2022-08-31T01:10:20.535Z,2.20
2022-08-31T01:11:20.512Z,2.60
2022-08-31T01:12:20.502Z,2.40
2022-08-31T01:13:20.502Z,2.50
2022-08-31T01:14:20.473Z,2.60
2022-08-31T01:15:20.458Z,2.40
2022-08-31T01:16:20.502Z,2.30
2022-08-31T01:17:20.431Z,2.60
2022-08-31T01:18:20.444Z,2.40
2022-08-31T01:19:20.394Z,2.70
2022-08-31T01:20:20.396Z,2.40
2022-08-31T01:21:20.378Z,2.50
2022-08-31T01:22:20.363Z,2.40
2022-08-31T01:23:20.372Z,2.50
2022-08-31T01:24:20.347Z,2.40
2022-08-31T01:25:20.316Z,2.20
2022-08-31T01:26:20.317Z,2.50
2022-08-31T01:27:20.295Z,2.80
2022-08-31T01:28:20.319Z,2.20
2022-08-31T01:29:20.267Z,2.40
2022-08-31T01:30:20.259Z,2.20
2022-08-31T01:31:20.270Z,2.50
2022-08-31T01:32:20.227Z,2.30
2022-08-31T01:33:20.236Z,2.30
2022-08-31T01:34:20.198Z,2.40
2022-08-31T01:35:20.187Z,2.40
2022-08-31T01:36:20.189Z,2.40
2022-08-31T01:37:20.158Z,2.80
2022-08-31T01:38:21.169Z,2.30
2022-08-31T01:39:20.133Z,2.40
2022-08-31T01:40:20.216Z,2.60
2022-08-31T01:41:20.108Z,2.60
2022-08-31T01:42:20.089Z,2.50
2022-08-31T01:43:20.148Z,2.50
2022-08-31T01:44:20.069Z,2.40
2022-08-31T01:45:20.041Z,2.40
2022-08-31T01:46:20.064Z,2.30
2022-08-31T01:47:20.022Z,2.40
2022-08-31T01:48:20.031Z,2.70
2022-08-31T01:49:20.001Z,2.50
2022-08-31T01:50:19.983Z,2.40
2022-08-31T01:51:19.965Z,2.50
2022-08-31T01:52:19.952Z,2.20
2022-08-31T01:53:20.035Z,2.30
2022-08-31T01:54:19.939Z,2.30
2022-08-31T01:55:19.913Z,2.40
2022-08-31T01:56:19.904Z,2.20
2022-08-31T01:57:19.883Z,2.30
2022-08-31T01:58:20.899Z,2.40
2022-08-31T01:59:19.855Z,2.10
2022-08-31T02:00:19.844Z,2.40
2022-08-31T02:01:33.564Z,2.40
2022-08-31T02:02:20.877Z,2.50
2022-08-31T02:03:19.956Z,2.10
2022-08-31T02:04:19.794Z,2.40
2022-08-31T02:05:19.778Z,2.20
2022-08-31T02:06:19.776Z,2.20
2022-08-31T02:07:19.777Z,2.20
2022-08-31T02:08:19.757Z,2.30
2022-08-31T02:09:19.729Z,2.10
2022-08-31T02:10:19.714Z,2.20
2022-08-31T02:11:19.686Z,2.20
2022-08-31T02:12:19.684Z,2.00
2022-08-31T02:13:19.830Z,2.30
2022-08-31T02:14:19.665Z,2.30
2022-08-31T02:15:19.647Z,2.00
2022-08-31T02:16:19.677Z,2.00
2022-08-31T02:17:19.609Z,2.20
2022-08-31T02:18:19.639Z,2.30
2022-08-31T02:19:19.580Z,2.20
2022-08-31T02:20:19.576Z,2.00
2022-08-31T02:21:19.561Z,2.20
2022-08-31T02:22:19.562Z,2.20
2022-08-31T02:23:19.728Z,2.00
2022-08-31T02:24:19.519Z,2.40
2022-08-31T02:25:19.500Z,2.10
2022-08-31T02:26:19.490Z,2.20
2022-08-31T02:27:19.479Z,2.00
2022-08-31T02:28:19.494Z,2.10
2022-08-31T02:29:19.462Z,2.10
2022-08-31T02:30:19.459Z,1.90
2022-08-31T02:31:19.528Z,2.10
2022-08-31T02:32:20.276Z,2.20
2022-08-31T02:33:19.652Z,2.30
2022-08-31T02:34:19.382Z,2.50
2022-08-31T02:35:19.362Z,2.30
2022-08-31T02:36:19.354Z,2.10
2022-08-31T02:37:20.202Z,2.40
2022-08-31T02:38:19.352Z,2.10
2022-08-31T02:39:19.321Z,2.30
2022-08-31T02:40:19.345Z,2.10
2022-08-31T02:41:19.281Z,2.30
2022-08-31T02:42:19.275Z,2.40
2022-08-31T02:43:25.137Z,2.30
2022-08-31T02:44:20.282Z,2.00
2022-08-31T02:45:19.233Z,2.10
2022-08-31T02:46:19.299Z,2.40
2022-08-31T02:47:19.202Z,2.40
2022-08-31T02:48:19.216Z,2.40
2022-08-31T02:49:19.175Z,2.10
2022-08-31T02:50:19.168Z,2.20
2022-08-31T02:51:19.147Z,2.70
2022-08-31T02:52:19.146Z,2.50
2022-08-31T02:53:19.286Z,2.40
2022-08-31T02:54:19.107Z,2.20
2022-08-31T02:55:19.093Z,2.20
2022-08-31T02:56:19.084Z,2.60
2022-08-31T02:57:19.070Z,2.20
2022-08-31T02:58:23.808Z,2.20
2022-08-31T02:59:20.041Z,2.00
2022-08-31T03:00:19.028Z,2.30
2022-08-31T03:01:19.065Z,2.40
2022-08-31T03:02:19.115Z,2.40
2022-08-31T03:03:19.198Z,2.30
2022-08-31T03:04:18.980Z,2.50
2022-08-31T03:05:18.969Z,2.70
2022-08-31T03:06:18.949Z,2.30
2022-08-31T03:07:18.930Z,2.40
2022-08-31T03:08:18.954Z,2.30
2022-08-31T03:09:18.900Z,2.60
2022-08-31T03:10:18.894Z,2.60
2022-08-31T03:11:18.872Z,2.40
2022-08-31T03:12:18.869Z,3.20
2022-08-31T03:13:18.941Z,2.60
2022-08-31T03:14:18.842Z,3.00
2022-08-31T03:15:18.821Z,2.70
2022-08-31T03:16:18.855Z,3.10
2022-08-31T03:17:18.792Z,2.40
2022-08-31T03:18:18.803Z,2.70
2022-08-31T03:19:18.769Z,2.80
2022-08-31T03:20:18.760Z,2.60
2022-08-31T03:21:18.750Z,2.60
2022-08-31T03:22:18.733Z,2.80
2022-08-31T03:23:18.847Z,3.40
2022-08-31T03:24:18.704Z,3.80
2022-08-31T03:25:18.684Z,2.40
2022-08-31T03:26:18.684Z,2.90
2022-08-31T03:27:18.655Z,2.50
2022-08-31T03:28:18.678Z,2.50
2022-08-31T03:29:18.634Z,3.10
2022-08-31T03:30:18.624Z,2.60
2022-08-31T03:31:18.621Z,2.40
2022-08-31T03:32:18.595Z,2.80
2022-08-31T03:33:18.736Z,2.40
2022-08-31T03:34:18.566Z,2.60
2022-08-31T03:35:18.547Z,2.50
2022-08-31T03:36:18.554Z,2.60
2022-08-31T03:37:18.525Z,2.50
2022-08-31T03:38:18.551Z,2.40
2022-08-31T03:39:18.497Z,2.50
2022-08-31T03:40:18.542Z,2.50
2022-08-31T03:41:18.488Z,2.50
2022-08-31T03:42:18.465Z,2.60
2022-08-31T03:43:18.627Z,2.30
2022-08-31T03:44:18.439Z,3.40
2022-08-31T03:45:18.417Z,2.50
2022-08-31T03:46:18.426Z,5.50
2022-08-31T03:47:18.385Z,2.80
2022-08-31T03:48:18.410Z,2.30
2022-08-31T03:49:18.370Z,2.70
2022-08-31T03:50:18.356Z,2.70
2022-08-31T03:51:18.331Z,2.90
2022-08-31T03:52:18.322Z,2.50
2022-08-31T03:53:22.635Z,2.30
2022-08-31T03:54:18.300Z,2.50
2022-08-31T03:55:18.280Z,2.60
2022-08-31T03:56:18.271Z,3.20
2022-08-31T03:57:18.251Z,2.70
2022-08-31T03:58:18.274Z,2.80
2022-08-31T03:59:18.233Z,2.40
2022-08-31T04:00:18.216Z,2.60
2022-08-31T04:01:18.228Z,2.70
2022-08-31T04:02:18.238Z,2.60
2022-08-31T04:03:18.305Z,2.60
2022-08-31T04:04:18.164Z,2.50
2022-08-31T04:05:18.194Z,2.80
2022-08-31T04:06:18.132Z,2.40
2022-08-31T04:07:18.122Z,3.20
2022-08-31T04:08:18.125Z,2.80
2022-08-31T04:09:18.243Z,2.50
2022-08-31T04:10:18.085Z,2.80
2022-08-31T04:11:18.073Z,2.60
2022-08-31T04:12:19.052Z,2.70
2022-08-31T04:13:18.200Z,2.50
2022-08-31T04:14:18.015Z,2.50
2022-08-31T04:15:18.015Z,2.40
2022-08-31T04:16:18.023Z,2.40
2022-08-31T04:17:18.010Z,2.40
2022-08-31T04:18:17.997Z,2.50
2022-08-31T04:19:17.956Z,2.70
2022-08-31T04:20:17.964Z,2.40
2022-08-31T04:21:18.935Z,2.50
2022-08-31T04:22:17.927Z,2.40
2022-08-31T04:23:18.171Z,2.30
2022-08-31T04:24:17.886Z,2.40
2022-08-31T04:25:18.279Z,2.20
2022-08-31T04:26:17.861Z,2.20
2022-08-31T04:27:17.878Z,2.40
2022-08-31T04:28:17.857Z,2.10
2022-08-31T04:29:17.826Z,2.20
2022-08-31T04:30:17.818Z,2.10
2022-08-31T04:31:17.885Z,2.40
2022-08-31T04:32:17.781Z,2.00
2022-08-31T04:33:17.876Z,3.20
2022-08-31T04:34:17.750Z,2.30
2022-08-31T04:35:17.742Z,2.10
2022-08-31T04:36:17.824Z,2.60
2022-08-31T04:37:17.710Z,2.20
2022-08-31T04:38:17.720Z,2.10
2022-08-31T04:39:17.701Z,2.20
2022-08-31T04:40:17.729Z,2.20
2022-08-31T04:41:17.662Z,2.30
2022-08-31T04:42:17.639Z,2.20
2022-08-31T04:43:17.826Z,3.00
2022-08-31T04:44:19.941Z,2.90
2022-08-31T04:45:17.605Z,3.30
2022-08-31T04:46:17.640Z,2.80
2022-08-31T04:47:17.585Z,3.20
2022-08-31T04:48:17.584Z,3.00
2022-08-31T04:49:17.552Z,4.00
2022-08-31T04:50:17.533Z,3.20
2022-08-31T04:51:17.527Z,2.50
2022-08-31T04:52:17.508Z,2.40
2022-08-31T04:53:17.631Z,3.00
2022-08-31T04:54:17.482Z,2.90
2022-08-31T04:55:17.474Z,2.80
2022-08-31T04:56:17.467Z,2.70
2022-08-31T04:57:17.442Z,2.40
2022-08-31T04:58:17.455Z,2.50
2022-08-31T04:59:17.499Z,2.30
2022-08-31T05:00:18.081Z,2.60
2022-08-31T05:01:17.497Z,2.70
2022-08-31T05:02:17.442Z,3.30
2022-08-31T05:03:17.547Z,2.90
2022-08-31T05:04:17.356Z,3.10
2022-08-31T05:05:17.328Z,3.20
2022-08-31T05:06:17.307Z,2.90
2022-08-31T05:07:17.316Z,3.00
2022-08-31T05:08:17.310Z,2.70
2022-08-31T05:09:17.289Z,2.40
2022-08-31T05:10:17.269Z,2.40
2022-08-31T05:11:19.041Z,2.20
2022-08-31T05:12:17.232Z,2.50
2022-08-31T05:13:17.386Z,2.30
2022-08-31T05:14:17.208Z,2.30
2022-08-31T05:15:17.198Z,2.10
2022-08-31T05:16:17.205Z,2.20
2022-08-31T05:17:17.178Z,2.90
2022-08-31T05:18:17.178Z,2.60
2022-08-31T05:19:17.147Z,2.10
2022-08-31T05:20:17.126Z,2.00
2022-08-31T05:21:17.120Z,2.30
2022-08-31T05:22:17.100Z,2.30
2022-08-31T05:23:17.306Z,2.30
2022-08-31T05:24:17.080Z,2.10
2022-08-31T05:25:17.063Z,2.30
2022-08-31T05:26:17.044Z,2.30
2022-08-31T05:27:17.041Z,2.30
2022-08-31T05:28:17.042Z,2.30
2022-08-31T05:29:17.013Z,2.20
2022-08-31T05:30:17.002Z,2.30
2022-08-31T05:31:17.036Z,2.20
2022-08-31T05:32:16.968Z,2.30
2022-08-31T05:33:16.973Z,2.50
2022-08-31T05:34:16.952Z,3.00
2022-08-31T05:35:16.923Z,2.50
2022-08-31T05:36:16.917Z,2.60
2022-08-31T05:37:16.894Z,2.50
2022-08-31T05:38:16.903Z,2.50
2022-08-31T05:39:16.873Z,2.30
2022-08-31T05:40:16.899Z,2.30
2022-08-31T05:41:16.843Z,2.60
2022-08-31T05:42:16.856Z,2.70
2022-08-31T05:43:16.910Z,2.30
2022-08-31T05:44:16.795Z,2.40
2022-08-31T05:45:16.785Z,2.40
2022-08-31T05:46:16.811Z,2.60
2022-08-31T05:47:16.768Z,2.60
2022-08-31T05:48:16.776Z,2.80
2022-08-31T05:49:16.733Z,2.80
2022-08-31T05:50:16.751Z,2.80
2022-08-31T05:51:16.716Z,3.30
2022-08-31T05:52:16.693Z,2.60
2022-08-31T05:53:16.733Z,2.60
2022-08-31T05:54:16.667Z,2.50
2022-08-31T05:55:16.653Z,2.40
2022-08-31T05:56:19.230Z,3.00
2022-08-31T05:57:16.627Z,2.40
2022-08-31T05:58:16.629Z,2.40
2022-08-31T05:59:16.606Z,2.50
2022-08-31T06:00:16.578Z,3.10
2022-08-31T06:01:16.571Z,2.90
2022-08-31T06:02:16.569Z,2.50
2022-08-31T06:03:16.584Z,2.30
2022-08-31T06:04:16.528Z,2.50
2022-08-31T06:05:16.608Z,2.30
2022-08-31T06:06:16.509Z,2.40
2022-08-31T06:07:16.521Z,2.20
2022-08-31T06:08:16.469Z,2.80
2022-08-31T06:09:16.467Z,2.70
2022-08-31T06:10:16.446Z,2.60
2022-08-31T06:11:16.432Z,2.80
2022-08-31T06:12:16.442Z,2.90
2022-08-31T06:13:16.411Z,2.10
2022-08-31T06:14:16.391Z,2.30
2022-08-31T06:15:16.380Z,2.20
2022-08-31T06:16:16.444Z,2.40
2022-08-31T06:17:16.391Z,2.40
2022-08-31T06:18:16.341Z,2.30
2022-08-31T06:19:16.359Z,2.10
2022-08-31T06:20:17.916Z,2.50
2022-08-31T06:21:16.320Z,2.30
2022-08-31T06:22:16.303Z,2.60
2022-08-31T06:23:16.273Z,2.00
2022-08-31T06:24:16.253Z,2.40
2022-08-31T06:25:16.246Z,2.20
2022-08-31T06:26:16.224Z,2.20
2022-08-31T06:27:16.247Z,2.40
2022-08-31T06:28:16.203Z,2.20
2022-08-31T06:29:16.201Z,2.30
2022-08-31T06:30:16.175Z,2.30
2022-08-31T06:31:16.190Z,2.40
2022-08-31T06:32:16.172Z,2.20
2022-08-31T06:33:16.143Z,2.30
2022-08-31T06:34:16.116Z,2.20
2022-08-31T06:35:16.106Z,2.30
2022-08-31T06:36:16.086Z,2.30
2022-08-31T06:37:18.773Z,2.10
2022-08-31T06:38:16.067Z,2.50
2022-08-31T06:39:16.124Z,2.20
2022-08-31T06:40:16.102Z,2.50
2022-08-31T06:41:16.027Z,2.30
2022-08-31T06:42:16.043Z,2.40
2022-08-31T06:43:16.006Z,2.40
2022-08-31T06:44:15.980Z,2.60
2022-08-31T06:45:15.983Z,2.60
2022-08-31T06:46:15.999Z,2.40
2022-08-31T06:47:17.213Z,2.40
2022-08-31T06:48:15.938Z,2.40
2022-08-31T06:49:15.929Z,2.40
2022-08-31T06:50:15.928Z,2.60
2022-08-31T06:51:15.890Z,2.50
2022-08-31T06:52:15.900Z,2.50
2022-08-31T06:53:16.019Z,2.70
2022-08-31T06:54:29.135Z,2.70
2022-08-31T06:55:16.849Z,2.60
2022-08-31T06:56:20.964Z,2.80
2022-08-31T06:57:16.831Z,2.60
2022-08-31T06:58:15.815Z,2.60
2022-08-31T06:59:15.792Z,2.60
2022-08-31T07:00:15.771Z,2.50
2022-08-31T07:01:15.895Z,2.80
2022-08-31T07:02:16.850Z,2.50
2022-08-31T07:03:15.732Z,2.40
2022-08-31T07:04:15.719Z,2.90
2022-08-31T07:05:15.773Z,2.60
2022-08-31T07:06:15.699Z,2.60
2022-08-31T07:07:15.700Z,2.60
2022-08-31T07:08:15.662Z,2.60
2022-08-31T07:09:15.652Z,2.40
2022-08-31T07:10:15.636Z,2.70
2022-08-31T07:11:15.622Z,2.80
2022-08-31T07:12:15.641Z,2.40
2022-08-31T07:13:15.614Z,2.80
2022-08-31T07:14:15.606Z,3.10
2022-08-31T07:15:15.576Z,2.90
2022-08-31T07:16:15.647Z,2.80
2022-08-31T07:17:15.648Z,3.10
2022-08-31T07:18:15.534Z,2.90
2022-08-31T07:19:15.535Z,2.70
2022-08-31T07:20:15.496Z,2.90
2022-08-31T07:21:15.495Z,2.60
2022-08-31T07:22:15.734Z,3.00
2022-08-31T07:23:15.494Z,3.00
2022-08-31T07:24:15.559Z,2.80
2022-08-31T07:25:15.533Z,2.70
2022-08-31T07:26:15.497Z,2.50
2022-08-31T07:27:15.404Z,2.80
2022-08-31T07:28:15.426Z,2.40
2022-08-31T07:29:15.377Z,2.40
2022-08-31T07:30:15.359Z,2.30
2022-08-31T07:31:15.439Z,2.60
2022-08-31T07:32:15.364Z,2.50
2022-08-31T07:33:15.338Z,2.50
2022-08-31T07:34:15.331Z,2.70
2022-08-31T07:35:15.297Z,2.70
2022-08-31T07:36:15.279Z,2.50
2022-08-31T07:37:15.289Z,2.70
2022-08-31T07:38:15.247Z,2.40
2022-08-31T07:39:15.240Z,2.50
2022-08-31T07:40:15.296Z,2.50
2022-08-31T07:41:15.210Z,2.50
2022-08-31T07:42:15.211Z,2.60
2022-08-31T07:43:15.180Z,2.50
2022-08-31T07:44:15.169Z,2.50
2022-08-31T07:45:15.162Z,2.60
2022-08-31T07:46:15.178Z,2.50
2022-08-31T07:47:15.152Z,2.40
2022-08-31T07:48:15.122Z,2.60
2022-08-31T07:49:15.102Z,2.50
2022-08-31T07:50:15.083Z,2.40
2022-08-31T07:51:15.350Z,2.50
2022-08-31T07:52:15.083Z,2.30
2022-08-31T07:53:15.124Z,2.30
2022-08-31T07:54:15.035Z,2.30
2022-08-31T07:55:15.026Z,3.10
2022-08-31T07:56:15.007Z,2.60
2022-08-31T07:57:15.052Z,2.70
2022-08-31T07:58:14.976Z,3.40
2022-08-31T07:59:15.000Z,4.40
2022-08-31T08:00:14.944Z,2.80
2022-08-31T08:01:14.946Z,2.50
2022-08-31T08:02:17.432Z,2.60
2022-08-31T08:03:15.127Z,2.70
2022-08-31T08:04:14.899Z,2.80
2022-08-31T08:05:14.887Z,2.90
2022-08-31T08:06:14.886Z,2.70
2022-08-31T08:07:14.858Z,2.60
2022-08-31T08:08:15.753Z,2.40
2022-08-31T08:09:30.072Z,2.70
2022-08-31T08:10:15.807Z,2.80
2022-08-31T08:11:14.826Z,2.40
2022-08-31T08:12:14.785Z,2.80
2022-08-31T08:13:14.778Z,2.90
2022-08-31T08:14:14.759Z,2.70
2022-08-31T08:15:14.739Z,2.50
2022-08-31T08:16:14.854Z,2.30
2022-08-31T08:17:14.722Z,2.50
2022-08-31T08:18:14.713Z,2.50
2022-08-31T08:19:14.700Z,2.60
2022-08-31T08:20:14.681Z,2.60
2022-08-31T08:21:14.681Z,2.40
2022-08-31T08:22:22.462Z,2.20
2022-08-31T08:23:15.744Z,3.10
2022-08-31T08:24:14.639Z,2.60
2022-08-31T08:25:14.613Z,2.60
2022-08-31T08:26:22.007Z,2.80
2022-08-31T08:27:15.582Z,2.80
2022-08-31T08:28:36.010Z,2.60
2022-08-31T08:29:15.562Z,2.80
2022-08-31T08:30:14.546Z,2.60
2022-08-31T08:31:14.618Z,2.80
2022-08-31T08:32:17.458Z,2.50
2022-08-31T08:33:14.522Z,3.00
2022-08-31T08:34:14.494Z,3.40
2022-08-31T08:35:14.473Z,2.70
2022-08-31T08:36:14.503Z,2.70
2022-08-31T08:37:14.449Z,2.70
2022-08-31T08:38:14.436Z,2.60
2022-08-31T08:39:14.435Z,2.40
2022-08-31T08:40:14.464Z,2.80
2022-08-31T08:41:14.422Z,2.60
2022-08-31T08:42:14.387Z,2.80
2022-08-31T08:43:14.473Z,2.90
2022-08-31T08:44:17.732Z,2.80
2022-08-31T08:45:14.336Z,2.50
2022-08-31T08:46:33.631Z,2.40
2022-08-31T08:47:15.325Z,2.40
2022-08-31T08:48:14.312Z,2.30
2022-08-31T08:49:14.288Z,2.50
2022-08-31T08:50:14.279Z,2.60
2022-08-31T08:51:14.298Z,2.90
2022-08-31T08:52:14.273Z,2.70
2022-08-31T08:53:14.294Z,2.60
2022-08-31T08:54:14.230Z,2.50
2022-08-31T08:55:14.200Z,2.50
2022-08-31T08:56:32.364Z,2.40
2022-08-31T08:57:15.248Z,2.80
2022-08-31T08:58:14.171Z,2.60
2022-08-31T08:59:18.664Z,2.80
2022-08-31T09:00:15.140Z,2.90
2022-08-31T09:01:14.196Z,3.10
2022-08-31T09:02:14.164Z,2.40
2022-08-31T09:03:14.224Z,2.70
2022-08-31T09:04:14.081Z,3.30
2022-08-31T09:05:14.061Z,2.70
2022-08-31T09:06:14.082Z,2.40
2022-08-31T09:07:14.033Z,2.50
2022-08-31T09:08:14.043Z,2.40
2022-08-31T09:09:14.010Z,2.40
2022-08-31T09:10:14.018Z,2.40
2022-08-31T09:11:14.005Z,2.40
2022-08-31T09:12:15.050Z,2.70
2022-08-31T09:13:13.954Z,2.80
2022-08-31T09:14:13.964Z,2.60
2022-08-31T09:15:13.924Z,2.60
2022-08-31T09:16:13.977Z,2.30
2022-08-31T09:17:13.914Z,2.40
2022-08-31T09:18:13.892Z,2.60
2022-08-31T09:19:13.875Z,2.80
2022-08-31T09:20:13.866Z,2.80
2022-08-31T09:21:13.876Z,2.70
2022-08-31T09:22:13.848Z,2.80
2022-08-31T09:23:13.879Z,2.40
2022-08-31T09:24:13.821Z,2.20
2022-08-31T09:25:13.798Z,2.40
2022-08-31T09:26:13.818Z,2.50
2022-08-31T09:27:13.768Z,2.50
2022-08-31T09:28:13.758Z,2.60
2022-08-31T09:29:13.738Z,2.50
2022-08-31T09:30:13.729Z,2.80
2022-08-31T09:31:13.778Z,2.80
2022-08-31T09:32:13.707Z,2.20
2022-08-31T09:33:13.688Z,2.60
2022-08-31T09:34:13.678Z,2.50
2022-08-31T09:35:13.660Z,2.50
2022-08-31T09:36:13.695Z,2.60
2022-08-31T09:37:13.639Z,2.50
2022-08-31T09:38:13.622Z,2.50
2022-08-31T09:39:13.617Z,2.60
2022-08-31T09:40:13.642Z,2.60
2022-08-31T09:41:13.609Z,2.50
2022-08-31T09:42:13.572Z,2.80
2022-08-31T09:43:13.933Z,2.40
2022-08-31T09:44:13.543Z,2.60
2022-08-31T09:45:14.163Z,2.60
2022-08-31T09:46:13.594Z,2.50
2022-08-31T09:47:13.504Z,2.70
2022-08-31T09:48:13.491Z,3.30
2022-08-31T09:49:13.477Z,3.60
2022-08-31T09:50:13.554Z,4.20
2022-08-31T09:51:13.473Z,3.50
2022-08-31T09:52:13.442Z,3.50
2022-08-31T09:53:13.415Z,3.20
2022-08-31T09:54:13.405Z,3.00
2022-08-31T09:55:13.393Z,2.90
2022-08-31T09:56:13.417Z,2.90
2022-08-31T09:57:13.383Z,2.90
2022-08-31T09:58:13.365Z,2.90
2022-08-31T09:59:13.340Z,3.00
2022-08-31T10:00:13.329Z,2.80
2022-08-31T10:01:13.442Z,2.50
2022-08-31T10:02:13.300Z,3.00
2022-08-31T10:03:13.489Z,2.70
2022-08-31T10:04:13.277Z,2.80
2022-08-31T10:05:13.327Z,3.00
2022-08-31T10:06:13.273Z,2.90
2022-08-31T10:07:13.275Z,2.60
2022-08-31T10:08:16.378Z,3.20
2022-08-31T10:09:14.212Z,2.80
2022-08-31T10:10:29.895Z,2.70
2022-08-31T10:11:14.201Z,2.80
2022-08-31T10:12:13.171Z,2.90
2022-08-31T10:13:13.161Z,2.60
2022-08-31T10:14:13.139Z,3.00
2022-08-31T10:15:15.543Z,3.00
2022-08-31T10:16:13.199Z,2.60
2022-08-31T10:17:13.095Z,2.60
2022-08-31T10:18:13.099Z,2.60
2022-08-31T10:19:13.063Z,2.50
2022-08-31T10:20:13.054Z,2.70
2022-08-31T10:21:13.064Z,3.10
2022-08-31T10:22:13.034Z,3.00
2022-08-31T10:23:13.013Z,3.20
2022-08-31T10:24:13.004Z,2.70
2022-08-31T10:25:12.984Z,2.90
2022-08-31T10:26:13.004Z,2.70
2022-08-31T10:27:12.966Z,3.00
2022-08-31T10:28:12.949Z,2.80
2022-08-31T10:29:16.713Z,2.60
2022-08-31T10:30:13.948Z,2.60
2022-08-31T10:31:12.999Z,2.70
2022-08-31T10:32:12.888Z,2.50
2022-08-31T10:33:12.887Z,3.00
2022-08-31T10:34:12.868Z,2.50
2022-08-31T10:35:12.849Z,2.60
2022-08-31T10:36:12.866Z,2.50
2022-08-31T10:37:12.818Z,2.80
2022-08-31T10:38:16.772Z,2.70
2022-08-31T10:39:13.798Z,2.90
2022-08-31T10:40:12.875Z,2.50
2022-08-31T10:41:12.781Z,2.80
2022-08-31T10:42:12.760Z,2.60
2022-08-31T10:43:12.741Z,3.00
2022-08-31T10:44:12.734Z,2.70
2022-08-31T10:45:17.756Z,2.90
2022-08-31T10:46:13.753Z,2.60
2022-08-31T10:47:16.490Z,2.90
2022-08-31T10:48:13.682Z,2.70
2022-08-31T10:49:12.664Z,2.80
2022-08-31T10:50:12.674Z,3.20
2022-08-31T10:51:13.296Z,2.70
2022-08-31T10:52:12.624Z,3.00
2022-08-31T10:53:12.605Z,2.70
2022-08-31T10:54:12.604Z,2.60
2022-08-31T10:55:12.605Z,2.70
2022-08-31T10:56:12.579Z,2.40
2022-08-31T10:57:18.821Z,2.80
2022-08-31T10:58:13.546Z,2.70
2022-08-31T10:59:12.526Z,2.70
2022-08-31T11:00:12.550Z,2.80
2022-08-31T11:01:12.532Z,2.50
2022-08-31T11:02:12.503Z,2.30
2022-08-31T11:03:12.493Z,2.70
2022-08-31T11:04:12.494Z,2.20
2022-08-31T11:05:12.477Z,2.50
2022-08-31T11:06:12.448Z,2.60
2022-08-31T11:07:12.560Z,2.70
2022-08-31T11:08:12.419Z,2.50
2022-08-31T11:09:14.714Z,2.60
2022-08-31T11:10:12.431Z,3.00
2022-08-31T11:11:12.371Z,2.90
2022-08-31T11:12:12.370Z,2.80
2022-08-31T11:13:12.359Z,2.80
2022-08-31T11:14:12.351Z,2.80
2022-08-31T11:15:12.352Z,2.60
2022-08-31T11:16:12.354Z,2.60
2022-08-31T11:17:12.347Z,2.70
2022-08-31T11:18:12.284Z,2.60
2022-08-31T11:19:12.274Z,2.90
2022-08-31T11:20:12.281Z,3.00
2022-08-31T11:21:12.264Z,3.00
2022-08-31T11:22:12.233Z,3.00
2022-08-31T11:23:12.273Z,2.90
2022-08-31T11:24:12.205Z,2.90
2022-08-31T11:25:12.216Z,3.00
2022-08-31T11:26:12.185Z,2.70
2022-08-31T11:27:12.157Z,3.10
2022-08-31T11:28:12.166Z,2.80
2022-08-31T11:29:12.142Z,3.10
2022-08-31T11:30:12.147Z,2.90
2022-08-31T11:31:12.238Z,3.30
2022-08-31T11:32:12.098Z,2.90
2022-08-31T11:33:12.127Z,4.00
2022-08-31T11:34:16.799Z,3.40
2022-08-31T11:35:13.080Z,2.90
2022-08-31T11:36:12.050Z,2.90
2022-08-31T11:37:12.031Z,3.20
2022-08-31T11:38:12.021Z,3.00
2022-08-31T11:39:12.002Z,2.90
2022-08-31T11:40:12.055Z,2.80
2022-08-31T11:41:11.981Z,3.00
2022-08-31T11:42:11.968Z,3.30
2022-08-31T11:43:11.996Z,3.00
2022-08-31T11:44:11.943Z,2.70
2022-08-31T11:45:14.144Z,3.00
2022-08-31T11:46:12.826Z,3.10
2022-08-31T11:47:11.894Z,2.80
2022-08-31T11:48:11.894Z,3.00
2022-08-31T11:49:11.866Z,3.10
2022-08-31T11:50:11.886Z,3.00
2022-08-31T11:51:11.845Z,2.80
2022-08-31T11:52:11.836Z,3.30
2022-08-31T11:53:11.903Z,3.20
2022-08-31T11:54:11.807Z,3.20
2022-08-31T11:55:11.815Z,3.20
2022-08-31T11:56:11.778Z,3.40
2022-08-31T11:57:11.768Z,3.20
2022-08-31T11:58:11.758Z,3.30
2022-08-31T11:59:11.738Z,3.60
2022-08-31T12:00:11.758Z,3.10
2022-08-31T12:01:11.744Z,3.10
2022-08-31T12:02:11.753Z,5.70
2022-08-31T12:03:11.746Z,4.70
2022-08-31T12:04:11.669Z,3.10
2022-08-31T12:05:11.699Z,3.20
2022-08-31T12:06:11.650Z,2.90
2022-08-31T12:07:11.629Z,2.80
2022-08-31T12:08:11.623Z,2.90
2022-08-31T12:09:11.602Z,2.90
2022-08-31T12:10:11.612Z,3.40
2022-08-31T12:11:11.592Z,3.00
2022-08-31T12:12:11.563Z,3.50
2022-08-31T12:13:11.586Z,3.10
2022-08-31T12:14:11.543Z,3.20
2022-08-31T12:15:11.581Z,3.30
2022-08-31T12:16:11.612Z,3.10
2022-08-31T12:17:11.495Z,2.80
2022-08-31T12:18:11.508Z,3.20
2022-08-31T12:19:11.483Z,3.30
2022-08-31T12:20:11.487Z,3.10
2022-08-31T12:21:11.448Z,2.90
2022-08-31T12:22:11.436Z,5.00
2022-08-31T12:23:11.458Z,3.30
2022-08-31T12:24:15.428Z,3.10
2022-08-31T12:25:12.415Z,3.60
2022-08-31T12:26:11.377Z,3.60
2022-08-31T12:27:11.358Z,3.00
2022-08-31T12:28:11.355Z,3.20
2022-08-31T12:29:11.341Z,3.70
2022-08-31T12:30:11.359Z,4.00
2022-08-31T12:31:11.389Z,3.20
2022-08-31T12:32:11.427Z,3.00
2022-08-31T12:33:11.336Z,3.40
2022-08-31T12:34:11.270Z,3.70
2022-08-31T12:35:11.286Z,5.30
2022-08-31T12:36:11.247Z,3.60
2022-08-31T12:37:11.240Z,4.70
2022-08-31T12:38:11.212Z,4.10
2022-08-31T12:39:11.241Z,3.80
2022-08-31T12:40:11.330Z,3.50
2022-08-31T12:41:11.183Z,3.40
2022-08-31T12:42:11.163Z,3.20
2022-08-31T12:43:11.156Z,3.30
2022-08-31T12:44:14.387Z,4.00
2022-08-31T12:45:11.143Z,3.00
2022-08-31T12:46:11.194Z,3.20
2022-08-31T12:47:11.105Z,3.10
2022-08-31T12:48:11.085Z,3.30
2022-08-31T12:49:11.075Z,3.00
2022-08-31T12:50:11.098Z,3.30
2022-08-31T12:51:11.047Z,3.10
2022-08-31T12:52:11.027Z,3.10
2022-08-31T12:53:11.018Z,2.90
2022-08-31T12:54:11.006Z,3.00
2022-08-31T12:55:11.019Z,3.10
2022-08-31T12:56:10.986Z,3.40
2022-08-31T12:57:10.967Z,3.40
2022-08-31T12:58:10.960Z,3.40
2022-08-31T12:59:10.938Z,3.20
2022-08-31T13:00:13.189Z,3.00
2022-08-31T13:01:11.060Z,3.10
2022-08-31T13:02:10.976Z,3.10
2022-08-31T13:03:10.954Z,3.00
2022-08-31T13:04:10.868Z,2.90
2022-08-31T13:05:10.887Z,3.50
2022-08-31T13:06:10.851Z,3.10
2022-08-31T13:07:10.836Z,3.00
2022-08-31T13:08:11.020Z,2.90
2022-08-31T13:09:10.802Z,2.80
2022-08-31T13:10:10.812Z,2.70
2022-08-31T13:11:10.791Z,2.80
2022-08-31T13:12:10.760Z,3.00
2022-08-31T13:13:10.754Z,3.20
2022-08-31T13:14:10.733Z,3.30
2022-08-31T13:15:11.410Z,3.00
2022-08-31T13:16:10.717Z,3.00
2022-08-31T13:17:10.754Z,2.90
2022-08-31T13:18:10.682Z,3.20